Terminal Aerodrome Forecast
Issued by NWS

Home | Current Version | Previous Version | Text Only | Print | Product List | Glossary On
Versions: 1 2 3 4 5 6 7 8 9 10 11 12 13 14 15 16
000
FTUS45 KGJT 192334
TAFMTJ
TAF
KMTJ 192334Z 2000/2024 34004KT P6SM SKC
     FM200300 15007KT P6SM SKC
     FM201500 VRB04KT P6SM SCT200
     FM201900 34005KT P6SM BKN200=

USA.gov is the U.S. government's official web portal to all federal, state and local government web resources and services.